HORACE LAKE: From 07/21/2020 05:00 to 09/20/2020 02:00

Date LAKE ELEVATION [FT] PRECIPITATION INCREMENT [IN] AIR TEMPERATURE [F] RELATIVE HUMIDITY [%] RELEASE [CFS]
09/19/2020 09:00 655.15 0.00 43.2 63.0 --
09/19/2020 08:00 655.14 0.00 41.5 67.0 --
09/19/2020 07:00 655.14 0.00 42.3 64.0 --
09/19/2020 06:00 655.15 0.00 39.7 73.0 --
09/19/2020 05:00 655.15 0.00 40.5 69.0 --
09/19/2020 04:00 655.15 0.00 43.7 62.0 --
09/19/2020 03:00 655.15 0.00 43.3 60.0 --
09/19/2020 02:00 655.15 0.00 46.4 55.0 --
09/19/2020 01:00 655.15 0.00 47.6 49.0 --
09/19/2020 00:00 655.16 0.00 48.9 46.0 --
09/18/2020 23:00 655.14 0.00 50.4 46.0 --
09/18/2020 22:00 655.15 0.00 52.1 47.0 --
09/18/2020 21:00 655.14 0.00 54.6 48.0 --
09/18/2020 20:00 655.15 0.00 57.6 40.0 --
09/18/2020 19:00 655.15 0.01 62.0 32.0 --
09/18/2020 18:00 655.15 0.00 63.2 32.0 --
09/18/2020 17:00 655.16 0.00 63.8 31.0 --
09/18/2020 16:00 655.15 0.00 60.5 63.0 --
09/18/2020 15:00 655.15 0.00 58.0 72.0 --
09/18/2020 14:00 655.16 0.00 55.5 84.0 --
09/18/2020 13:00 655.16 0.00 53.3 96.0 --
09/18/2020 12:00 655.16 0.00 51.8 100.0 --
09/18/2020 11:00 655.16 0.00 50.9 100.0 --
09/18/2020 10:00 655.16 0.01 51.8 100.0 --
09/18/2020 09:00 655.16 0.00 53.0 100.0 --
09/18/2020 08:00 655.16 0.00 53.2 100.0 --
09/18/2020 07:00 655.16 0.00 54.0 100.0 --
09/18/2020 06:00 655.16 0.00 55.2 100.0 --
09/18/2020 05:00 655.16 0.00 56.0 98.0 --
09/18/2020 04:00 655.16 0.00 56.5 91.0 --
09/18/2020 03:00 655.16 0.00 56.8 89.0 --
09/18/2020 02:00 655.16 0.00 56.0 93.0 --
09/18/2020 01:00 655.16 0.00 56.0 91.0 --
09/18/2020 00:00 655.16 0.00 59.0 75.0 --
09/17/2020 23:00 655.16 0.00 59.4 74.0 --
09/17/2020 22:00 655.15 0.00 59.7 74.0 --
09/17/2020 21:00 655.15 0.00 60.3 71.0 --
09/17/2020 20:00 655.16 0.00 61.6 72.0 --
09/17/2020 19:00 655.16 0.00 63.8 70.0 --
09/17/2020 18:00 655.17 0.00 68.2 65.0 --
09/17/2020 17:00 655.16 0.00 70.7 61.0 --
09/17/2020 16:00 655.17 0.00 71.2 60.0 --
09/17/2020 15:00 655.17 0.00 70.8 56.0 --
09/17/2020 14:00 655.16 0.00 68.7 60.0 --
09/17/2020 13:00 655.17 0.00 66.2 65.0 --
09/17/2020 12:00 655.16 0.00 64.1 69.0 --
09/17/2020 11:00 655.18 0.00 62.3 75.0 --
09/17/2020 10:00 655.16 0.00 59.4 83.0 --
09/17/2020 09:00 655.17 0.00 57.6 90.0 --
09/17/2020 08:00 655.17 0.00 57.3 92.0 --
09/17/2020 07:00 655.17 0.00 57.6 91.0 --
09/17/2020 06:00 655.17 0.00 56.1 97.0 --
09/17/2020 05:00 655.17 0.00 57.1 91.0 --
09/17/2020 04:00 655.18 0.00 59.4 85.0 --
09/17/2020 03:00 655.17 0.00 60.4 81.0 --
09/17/2020 02:00 655.16 0.00 61.3 79.0 --
09/17/2020 01:00 655.18 0.00 61.7 76.0 --
09/17/2020 00:00 655.18 0.00 62.3 74.0 --
09/16/2020 23:00 655.18 0.00 63.2 73.0 --
09/16/2020 22:00 655.17 0.00 64.1 69.0 --
09/16/2020 21:00 655.18 0.00 65.0 66.0 --
09/16/2020 20:00 655.18 0.00 67.0 60.0 --
09/16/2020 19:00 655.17 0.00 68.9 52.0 --
09/16/2020 18:00 655.16 0.00 70.0 46.0 --
09/16/2020 17:00 655.15 0.00 69.9 46.0 --
09/16/2020 16:00 655.16 0.00 69.6 38.0 --
09/16/2020 15:00 655.18 0.00 68.4 44.0 --
09/16/2020 14:00 655.18 0.00 66.5 47.0 --
09/16/2020 13:00 655.19 0.00 64.2 48.0 --
09/16/2020 12:00 655.20 0.00 59.5 60.0 --
09/16/2020 11:00 655.19 0.00 57.2 69.0 --
09/16/2020 10:00 655.18 0.00 53.2 82.0 --
09/16/2020 09:00 655.18 0.00 47.9 100.0 --
09/16/2020 08:00 655.18 0.00 44.9 100.0 --
09/16/2020 07:00 655.19 0.00 47.5 97.0 --
09/16/2020 06:00 655.20 0.00 48.8 89.0 --
09/16/2020 05:00 655.19 0.00 48.9 89.0 --
09/16/2020 04:00 655.19 0.00 50.0 82.0 --
09/16/2020 03:00 655.19 0.00 49.5 85.0 --
09/16/2020 02:00 655.20 0.00 50.2 77.0 --
09/16/2020 01:00 655.19 0.00 48.8 89.0 --
09/16/2020 00:00 655.19 0.00 48.4 86.0 --
09/15/2020 23:00 655.19 0.00 48.5 83.0 --
09/15/2020 22:00 655.19 0.00 50.2 80.0 --
09/15/2020 21:00 655.19 0.00 50.1 75.0 --
09/15/2020 20:00 655.20 0.00 53.7 65.0 --
09/15/2020 19:00 655.20 0.00 59.8 51.0 --
09/15/2020 18:00 655.19 0.00 62.9 38.0 --
09/15/2020 17:00 655.19 0.00 63.4 37.0 --
09/15/2020 16:00 655.20 0.00 62.5 41.0 --
09/15/2020 15:00 655.18 0.00 60.6 42.0 --
09/15/2020 14:00 655.19 0.00 58.8 42.0 --
09/15/2020 13:00 655.19 0.00 56.9 50.0 --
09/15/2020 12:00 655.20 0.00 54.6 53.0 --
09/15/2020 11:00 655.19 0.00 52.3 59.0 --
09/15/2020 10:00 655.20 0.00 49.3 69.0 --
09/15/2020 09:00 655.20 0.00 45.6 77.0 --
09/15/2020 08:00 655.20 0.00 44.6 79.0 --
09/15/2020 07:00 655.20 0.00 45.9 76.0 --
09/15/2020 06:00 655.20 0.00 46.0 75.0 --
09/15/2020 05:00 655.20 0.00 47.3 74.0 --
09/15/2020 04:00 655.20 0.00 47.4 73.0 --
09/15/2020 03:00 655.19 0.00 49.9 71.0 --
09/15/2020 02:00 655.20 0.00 51.2 62.0 --
09/15/2020 01:00 655.20 0.00 50.5 63.0 --
09/15/2020 00:00 655.21 0.00 52.3 60.0 --
09/14/2020 23:00 655.20 0.00 52.7 55.0 --
09/14/2020 22:00 655.20 0.00 54.6 53.0 --
09/14/2020 21:00 655.21 0.00 56.8 53.0 --
09/14/2020 20:00 655.20 0.00 59.1 47.0 --
09/14/2020 19:00 655.21 0.00 62.4 40.0 --
09/14/2020 18:00 655.20 0.00 65.2 36.0 --
09/14/2020 17:00 655.19 0.00 67.1 40.0 --
09/14/2020 16:00 655.20 0.00 68.0 36.0 --
09/14/2020 15:00 655.21 0.00 67.1 43.0 --
09/14/2020 14:00 655.21 0.00 67.0 46.0 --
09/14/2020 13:00 655.22 0.00 66.5 52.0 --
09/14/2020 12:00 655.25 0.00 65.8 59.0 --
09/14/2020 11:00 655.22 0.00 65.1 60.0 --
09/14/2020 10:00 655.22 0.00 64.1 72.0 --
09/14/2020 09:00 655.22 0.00 59.8 100.0 --
09/14/2020 08:00 655.21 0.00 59.5 99.0 --
09/14/2020 07:00 655.22 0.00 64.3 84.0 --
09/14/2020 06:00 655.22 0.00 61.3 100.0 --
09/14/2020 05:00 655.21 0.00 63.4 100.0 --
09/14/2020 04:00 655.22 0.00 63.3 100.0 --
09/14/2020 03:00 655.22 0.00 66.0 91.0 --
09/14/2020 02:00 655.21 0.00 66.2 87.0 --
09/14/2020 01:00 655.22 0.00 66.9 84.0 --
09/14/2020 00:00 655.22 0.00 68.5 79.0 --
09/13/2020 23:00 655.21 0.00 68.6 77.0 --
09/13/2020 22:00 655.23 0.00 69.0 74.0 --
09/13/2020 21:00 655.22 0.00 69.1 70.0 --
09/13/2020 20:00 655.22 0.00 70.0 65.0 --
09/13/2020 19:00 655.23 0.00 70.8 60.0 --
09/13/2020 18:00 655.23 0.00 71.2 58.0 --
09/13/2020 17:00 655.22 0.00 71.0 58.0 --
09/13/2020 16:00 655.23 0.00 72.3 56.0 --
09/13/2020 15:00 655.23 0.00 70.4 58.0 --
09/13/2020 14:00 655.22 0.00 67.1 65.0 --
09/13/2020 13:00 655.24 0.00 65.4 70.0 --
09/13/2020 12:00 655.24 0.00 63.0 77.0 --
09/13/2020 11:00 655.23 0.00 59.3 87.0 --
09/13/2020 10:00 655.23 0.00 52.1 100.0 --
09/13/2020 09:00 655.23 0.00 49.0 100.0 --
09/13/2020 08:00 655.23 0.00 49.1 100.0 --
09/13/2020 07:00 655.23 0.00 47.3 100.0 --
09/13/2020 06:00 655.23 0.00 44.7 100.0 --
09/13/2020 05:00 655.23 0.00 46.5 100.0 --
09/13/2020 04:00 655.23 0.00 47.3 100.0 --
09/13/2020 03:00 655.24 0.00 46.7 100.0 --
09/13/2020 02:00 655.23 0.00 48.4 100.0 --
09/13/2020 01:00 655.23 0.00 49.8 100.0 --
09/13/2020 00:00 655.23 0.00 50.7 98.0 --
09/12/2020 23:00 655.23 0.00 51.6 93.0 --
09/12/2020 22:00 655.23 0.00 53.0 89.0 --
09/12/2020 21:00 655.23 0.00 56.1 80.0 --
09/12/2020 20:00 655.23 0.00 60.2 70.0 --
09/12/2020 19:00 655.24 0.00 65.1 55.0 --
09/12/2020 18:00 655.23 0.00 65.8 53.0 --
09/12/2020 17:00 655.24 0.00 66.9 50.0 --
09/12/2020 16:00 655.24 0.00 66.7 48.0 --
09/12/2020 15:00 655.23 0.00 65.3 49.0 --
09/12/2020 14:00 655.24 0.00 64.3 52.0 --
09/12/2020 13:00 655.25 0.00 62.7 56.0 --
09/12/2020 12:00 655.23 0.00 59.8 65.0 --
09/12/2020 11:00 655.25 0.00 57.1 68.0 --
09/12/2020 10:00 655.25 0.01 53.5 88.0 --
09/12/2020 09:00 655.25 0.00 46.3 100.0 --
09/12/2020 08:00 655.24 0.00 44.4 100.0 --
09/12/2020 07:00 655.25 0.00 44.8 100.0 --
09/12/2020 06:00 655.24 0.00 45.5 100.0 --
09/12/2020 05:00 655.24 0.00 46.4 100.0 --
09/12/2020 04:00 655.25 0.00 47.0 100.0 --
09/12/2020 03:00 655.25 0.00 48.1 100.0 --
09/12/2020 02:00 655.24 0.00 47.4 100.0 --
09/12/2020 01:00 655.24 0.00 50.7 88.0 --
09/12/2020 00:00 655.24 0.00 50.5 90.0 --
09/11/2020 23:00 655.24 0.00 50.8 81.0 --
09/11/2020 22:00 655.25 0.00 53.9 74.0 --
09/11/2020 21:00 655.25 0.00 56.0 69.0 --
09/11/2020 20:00 655.25 0.00 62.6 54.0 --
09/11/2020 19:00 655.24 0.00 65.8 45.0 --
09/11/2020 18:00 655.25 0.00 66.6 45.0 --
09/11/2020 17:00 655.26 0.00 66.8 44.0 --
09/11/2020 16:00 655.25 0.01 65.9 50.0 --
09/11/2020 15:00 655.26 0.00 66.0 51.0 --
09/11/2020 14:00 655.24 0.00 64.1 58.0 --
09/11/2020 13:00 655.26 0.00 62.7 62.0 --
09/11/2020 12:00 655.26 0.01 60.8 65.0 --
09/11/2020 11:00 655.27 0.00 60.3 68.0 --
09/11/2020 10:00 655.26 0.00 59.2 72.0 --
09/11/2020 09:00 655.25 0.00 59.7 78.0 --
09/11/2020 08:00 655.26 0.01 60.9 79.0 --
09/11/2020 07:00 655.26 0.00 62.6 84.0 --
09/11/2020 06:00 655.25 0.00 63.2 90.0 --
09/11/2020 05:00 655.25 0.00 63.6 98.0 --
09/11/2020 04:00 655.26 0.01 64.1 100.0 --
09/11/2020 03:00 655.26 0.00 66.3 100.0 --
09/11/2020 02:00 655.25 0.00 68.0 100.0 --
09/11/2020 01:00 655.26 0.00 69.0 100.0 --
09/11/2020 00:00 655.26 0.01 68.5 100.0 --
09/10/2020 23:00 655.26 0.00 70.2 100.0 --
09/10/2020 22:00 655.26 0.00 70.6 100.0 --
09/10/2020 21:00 655.25 0.01 71.5 100.0 --
09/10/2020 20:00 655.25 0.00 73.4 98.0 --
09/10/2020 19:00 655.26 0.00 74.6 98.0 --
09/10/2020 18:00 655.26 0.00 75.7 82.0 --
09/10/2020 17:00 655.25 0.00 75.9 90.0 --
09/10/2020 16:00 655.25 0.00 73.4 100.0 --
09/10/2020 15:00 655.26 0.00 75.1 94.0 --
09/10/2020 14:00 655.26 0.00 72.5 100.0 --
09/10/2020 13:00 655.26 0.00 70.8 98.0 --
09/10/2020 12:00 655.26 0.00 71.0 93.0 --
09/10/2020 11:00 655.25 0.00 68.9 93.0 --
09/10/2020 10:00 655.26 0.00 66.0 100.0 --
09/10/2020 09:00 655.24 0.00 63.9 100.0 --
09/10/2020 08:00 655.25 0.00 62.4 100.0 --
09/10/2020 07:00 655.25 0.00 63.3 100.0 --
09/10/2020 06:00 655.25 0.00 62.2 100.0 --
09/10/2020 05:00 655.25 0.00 63.0 100.0 --
09/10/2020 04:00 655.26 0.00 64.0 100.0 --
09/10/2020 03:00 655.25 0.00 65.0 100.0 --
09/10/2020 02:00 655.26 0.00 64.7 100.0 --
09/10/2020 01:00 655.26 0.00 64.5 100.0 --
09/10/2020 00:00 655.26 0.00 64.9 100.0 --
09/09/2020 23:00 655.26 0.00 66.6 95.0 --
09/09/2020 22:00 655.25 0.00 67.6 85.0 --
09/09/2020 21:00 655.26 0.00 69.5 82.0 --
09/09/2020 20:00 655.26 0.00 70.9 79.0 --
09/09/2020 19:00 655.25 0.00 74.1 73.0 --
09/09/2020 18:00 655.25 0.00 80.4 44.0 --
09/09/2020 17:00 655.25 0.00 80.8 47.0 --
09/09/2020 16:00 655.25 0.00 81.6 47.0 --
09/09/2020 15:00 655.26 0.00 81.6 54.0 --
09/09/2020 14:00 655.27 0.00 81.8 49.0 --
09/09/2020 13:00 655.26 0.00 80.4 60.0 --
09/09/2020 12:00 655.26 0.00 74.9 74.0 --
09/09/2020 11:00 655.26 0.00 73.5 77.0 --
09/09/2020 10:00 655.26 0.00 66.5 95.0 --
09/09/2020 09:00 655.27 0.00 62.4 100.0 --
09/09/2020 08:00 655.26 0.00 61.1 100.0 --
09/09/2020 07:00 655.26 0.00 60.5 100.0 --
09/09/2020 06:00 655.26 0.00 59.9 100.0 --
09/09/2020 05:00 655.25 0.00 61.7 100.0 --
09/09/2020 04:00 655.27 0.00 62.1 100.0 --
09/09/2020 03:00 655.26 0.00 62.8 100.0 --
09/09/2020 02:00 655.26 0.00 63.1 94.0 --
09/09/2020 01:00 655.25 0.00 64.0 89.0 --
09/09/2020 00:00 655.26 0.00 65.6 82.0 --
09/08/2020 23:00 655.26 0.00 67.2 77.0 --
09/08/2020 22:00 655.26 0.00 69.2 77.0 --
09/08/2020 21:00 655.26 0.00 72.3 80.0 --
09/08/2020 20:00 655.26 0.00 75.1 70.0 --
09/08/2020 19:00 655.26 0.00 82.5 53.0 --
09/08/2020 18:00 655.27 0.00 84.0 46.0 --
09/08/2020 17:00 655.27 0.00 81.8 49.0 --
09/08/2020 16:00 655.27 0.00 81.2 51.0 --
09/08/2020 15:00 655.27 0.00 80.1 56.0 --
09/08/2020 14:00 655.26 0.00 78.3 62.0 --
09/08/2020 13:00 655.27 0.00 75.4 67.0 --
09/08/2020 12:00 655.27 0.00 72.1 71.0 --
09/08/2020 11:00 655.27 0.00 70.0 78.0 --
09/08/2020 10:00 655.27 0.00 67.4 88.0 --
09/08/2020 09:00 655.27 0.00 62.8 100.0 --
09/08/2020 08:00 655.26 0.00 59.2 100.0 --
09/08/2020 07:00 655.26 0.00 60.2 100.0 --
09/08/2020 06:00 655.27 0.00 62.8 100.0 --
09/08/2020 05:00 655.27 0.00 63.0 100.0 --
09/08/2020 04:00 655.26 0.00 61.8 100.0 --
09/08/2020 03:00 655.27 0.00 62.3 97.0 --
09/08/2020 02:00 655.27 0.00 64.4 86.0 --
09/08/2020 01:00 655.28 0.00 66.6 77.0 --
09/08/2020 00:00 655.27 0.00 67.4 69.0 --
09/07/2020 23:00 655.27 0.00 70.0 63.0 --
09/07/2020 22:00 655.28 0.00 71.2 56.0 --
09/07/2020 21:00 655.28 0.00 72.6 52.0 --
09/07/2020 20:00 655.28 0.00 73.9 47.0 --
09/07/2020 19:00 655.28 0.00 76.1 46.0 --
09/07/2020 18:00 655.27 0.00 77.1 48.0 --
09/07/2020 17:00 655.27 0.00 77.4 46.0 --
09/07/2020 16:00 655.28 0.00 78.5 44.0 --
09/07/2020 15:00 655.27 0.00 78.4 42.0 --
09/07/2020 14:00 655.30 0.00 77.3 47.0 --
09/07/2020 13:00 655.30 0.00 75.0 47.0 --
09/07/2020 12:00 655.28 0.00 73.0 47.0 --
09/07/2020 11:00 655.28 0.00 71.1 59.0 --
09/07/2020 10:00 655.28 0.00 67.7 81.0 --
09/07/2020 09:00 655.27 0.00 58.2 99.0 --
09/07/2020 08:00 655.28 0.00 55.9 100.0 --
09/07/2020 07:00 655.29 0.00 58.0 99.0 --
09/07/2020 06:00 655.28 0.00 55.3 100.0 --
09/07/2020 05:00 655.27 0.00 54.8 100.0 --
09/07/2020 04:00 655.28 0.00 55.4 100.0 --
09/07/2020 03:00 655.28 0.00 55.9 99.0 --
09/07/2020 02:00 655.28 0.00 56.3 100.0 --
09/07/2020 01:00 655.27 0.00 55.8 97.0 --
09/07/2020 00:00 655.29 0.00 56.4 93.0 --
09/06/2020 23:00 655.28 0.00 58.7 85.0 --
09/06/2020 22:00 655.29 0.00 61.0 82.0 --
09/06/2020 21:00 655.28 0.00 61.3 81.0 --
09/06/2020 20:00 655.27 0.00 66.6 68.0 --
09/06/2020 19:00 655.27 0.00 70.5 64.0 --
09/06/2020 18:00 655.28 0.00 75.2 45.0 --
09/06/2020 17:00 655.29 0.00 75.2 40.0 --
09/06/2020 16:00 655.29 0.00 73.1 42.0 --
09/06/2020 15:00 655.29 0.00 72.0 43.0 --
09/06/2020 14:00 655.30 0.00 70.8 49.0 --
09/06/2020 13:00 655.28 0.00 69.9 53.0 --
09/06/2020 12:00 655.29 0.00 67.9 60.0 --
09/06/2020 11:00 655.28 0.00 66.7 63.0 --
09/06/2020 10:00 655.29 0.00 63.3 72.0 --
09/06/2020 09:00 655.29 0.00 58.3 94.0 --
09/06/2020 08:00 655.29 0.00 55.8 100.0 --
09/06/2020 07:00 655.28 0.00 55.8 97.0 --
09/06/2020 06:00 655.29 0.00 57.1 94.0 --
09/06/2020 05:00 655.29 0.00 56.5 93.0 --
09/06/2020 04:00 655.30 0.00 56.4 94.0 --
09/06/2020 03:00 655.30 0.00 58.0 90.0 --
09/06/2020 02:00 655.29 0.00 57.0 90.0 --
09/06/2020 01:00 655.30 0.00 57.5 88.0 --
09/06/2020 00:00 655.29 0.00 57.5 84.0 --
09/05/2020 23:00 655.28 0.00 60.2 79.0 --
09/05/2020 22:00 655.29 0.00 61.5 73.0 --
09/05/2020 21:00 655.29 0.00 61.1 69.0 --
09/05/2020 20:00 655.30 0.00 69.5 51.0 --
09/05/2020 19:00 655.30 0.00 71.2 45.0 --
09/05/2020 18:00 655.28 0.00 71.5 42.0 --
09/05/2020 17:00 655.30 0.00 71.9 37.0 --
09/05/2020 16:00 655.30 0.00 71.3 36.0 --
09/05/2020 15:00 655.31 0.00 70.6 37.0 --
09/05/2020 14:00 655.29 0.00 69.0 41.0 --
09/05/2020 13:00 655.32 0.00 67.4 46.0 --
09/05/2020 12:00 655.30 0.00 65.7 48.0 --
09/05/2020 11:00 655.31 0.00 62.9 55.0 --
09/05/2020 10:00 655.31 0.00 59.6 65.0 --
09/05/2020 09:00 655.31 0.00 53.5 98.0 --
09/05/2020 08:00 655.31 0.00 48.1 100.0 --
09/05/2020 07:00 655.30 0.00 47.7 100.0 --
09/05/2020 06:00 655.30 0.00 48.5 100.0 --
09/05/2020 05:00 655.31 0.00 49.7 100.0 --
09/05/2020 04:00 655.31 0.00 50.7 98.0 --
09/05/2020 03:00 655.29 0.00 52.8 90.0 --
09/05/2020 02:00 655.30 0.00 56.3 80.0 --
09/05/2020 01:00 655.31 0.00 61.7 62.0 --
09/05/2020 00:00 655.31 0.00 57.5 92.0 --
09/04/2020 23:00 655.31 0.00 60.6 83.0 --
09/04/2020 22:00 655.30 0.00 62.6 79.0 --
09/04/2020 21:00 655.31 0.00 61.4 77.0 --
09/04/2020 20:00 655.31 0.00 67.5 59.0 --
09/04/2020 19:00 655.30 0.00 73.3 42.0 --
09/04/2020 18:00 655.31 0.00 74.7 38.0 --
09/04/2020 17:00 655.32 0.00 75.3 35.0 --
09/04/2020 16:00 655.31 0.00 75.3 37.0 --
09/04/2020 15:00 655.31 0.00 75.6 42.0 --
09/04/2020 14:00 655.31 0.00 74.9 41.0 --
09/04/2020 13:00 655.31 0.00 74.9 43.0 --
09/04/2020 12:00 655.32 0.01 73.5 58.0 --
09/04/2020 11:00 655.32 0.00 72.4 69.0 --
09/04/2020 10:00 655.32 0.00 70.2 78.0 --
09/04/2020 09:00 655.32 0.00 64.8 96.0 --
09/04/2020 08:00 655.32 0.00 59.5 100.0 --
09/04/2020 07:00 655.32 0.00 56.5 100.0 --
09/04/2020 06:00 655.31 0.00 57.6 100.0 --
09/04/2020 05:00 655.30 0.00 56.2 100.0 --
09/04/2020 04:00 655.31 0.00 57.2 100.0 --
09/04/2020 03:00 655.31 0.00 60.1 100.0 --
09/04/2020 02:00 655.32 0.00 61.5 93.0 --
09/04/2020 01:00 655.31 0.00 61.7 100.0 --
09/04/2020 00:00 655.32 0.00 61.5 100.0 --
09/03/2020 23:00 655.32 0.00 63.0 100.0 --
09/03/2020 22:00 655.31 0.00 67.3 94.0 --
09/03/2020 21:00 655.31 0.00 67.4 95.0 --
09/03/2020 20:00 655.31 0.00 70.1 85.0 --
09/03/2020 19:00 655.31 0.00 71.1 81.0 --
09/03/2020 18:00 655.31 0.00 75.7 72.0 --
09/03/2020 17:00 655.32 0.00 77.9 66.0 --
09/03/2020 16:00 655.31 0.00 77.5 64.0 --
09/03/2020 15:00 655.32 0.00 76.4 60.0 --
09/03/2020 14:00 655.32 0.00 75.1 65.0 --
09/03/2020 13:00 655.31 0.00 74.0 70.0 --
09/03/2020 12:00 655.31 0.00 70.9 89.0 --
09/03/2020 11:00 655.31 0.00 68.9 91.0 --
09/03/2020 10:00 655.32 0.00 67.6 100.0 --
09/03/2020 09:00 655.31 0.00 66.3 100.0 --
09/03/2020 08:00 655.31 0.00 64.7 100.0 --
09/03/2020 07:00 655.31 0.00 65.5 100.0 --
09/03/2020 06:00 655.31 0.00 65.3 100.0 --
09/03/2020 05:00 655.31 0.00 64.8 100.0 --
09/03/2020 04:00 655.31 0.00 65.7 100.0 --
09/03/2020 03:00 655.30 0.00 65.1 100.0 --
09/03/2020 02:00 655.30 0.00 65.2 100.0 --
09/03/2020 01:00 655.31 0.00 65.9 100.0 --
09/03/2020 00:00 655.31 0.00 65.0 100.0 --
09/02/2020 23:00 655.31 0.00 65.2 100.0 --
09/02/2020 22:00 655.30 0.00 64.9 100.0 --
09/02/2020 21:00 655.30 0.00 65.1 100.0 --
09/02/2020 20:00 655.30 0.00 65.6 100.0 --
09/02/2020 19:00 655.31 0.00 66.3 100.0 --
09/02/2020 18:00 655.31 0.00 66.9 100.0 --
09/02/2020 17:00 655.30 0.00 66.2 100.0 --
09/02/2020 16:00 655.30 0.00 65.1 100.0 --
09/02/2020 15:00 655.30 0.00 64.3 100.0 --
09/02/2020 14:00 655.30 0.00 63.9 100.0 --
09/02/2020 13:00 655.30 0.00 62.4 100.0 --
09/02/2020 12:00 655.30 0.00 61.1 100.0 --
09/02/2020 11:00 655.30 0.00 60.0 100.0 --
09/02/2020 10:00 655.29 0.00 58.7 100.0 --
09/02/2020 09:00 655.29 0.00 57.7 100.0 --
09/02/2020 08:00 655.30 0.00 57.7 100.0 --
09/02/2020 07:00 655.29 0.00 57.1 100.0 --
09/02/2020 06:00 655.30 0.00 56.2 100.0 --
09/02/2020 05:00 655.29 0.00 56.4 100.0 --
09/02/2020 04:00 655.29 0.00 57.1 100.0 --
09/02/2020 03:00 655.29 0.00 58.5 98.0 --
09/02/2020 02:00 655.29 0.00 59.9 89.0 --
09/02/2020 01:00 655.28 0.00 62.3 79.0 --
09/02/2020 00:00 655.29 0.00 63.1 74.0 --
09/01/2020 23:00 655.29 0.00 64.5 67.0 --
09/01/2020 22:00 655.29 0.00 65.5 65.0 --
09/01/2020 21:00 655.29 0.00 67.0 71.0 --
09/01/2020 20:00 655.29 0.00 69.1 67.0 --
09/01/2020 19:00 655.29 0.00 72.3 61.0 --
09/01/2020 18:00 655.30 0.00 73.9 51.0 --
09/01/2020 17:00 655.29 0.00 74.4 48.0 --
09/01/2020 16:00 655.30 0.00 73.1 50.0 --
09/01/2020 15:00 655.31 0.00 72.6 51.0 --
09/01/2020 14:00 655.29 0.00 70.4 56.0 --
09/01/2020 13:00 655.29 0.00 69.7 50.0 --
09/01/2020 12:00 655.29 0.00 66.8 67.0 --
09/01/2020 11:00 655.30 0.00 65.0 85.0 --
09/01/2020 10:00 655.30 0.00 60.6 100.0 --
09/01/2020 09:00 655.30 0.00 56.3 100.0 --
09/01/2020 08:00 655.30 0.00 51.8 100.0 --
09/01/2020 07:00 655.29 0.00 51.2 100.0 --
09/01/2020 06:00 655.29 0.00 51.8 100.0 --
09/01/2020 05:00 655.30 0.00 51.8 100.0 --
09/01/2020 04:00 655.29 0.00 53.5 100.0 --
09/01/2020 03:00 655.29 0.00 54.8 100.0 --
09/01/2020 02:00 655.28 0.00 54.5 100.0 --
09/01/2020 01:00 655.30 0.00 56.5 100.0 --
09/01/2020 00:00 655.30 0.00 57.0 98.0 --
08/31/2020 23:00 655.29 0.00 57.9 92.0 --
08/31/2020 22:00 655.30 0.00 59.3 88.0 --
08/31/2020 21:00 655.30 0.00 59.7 84.0 --
08/31/2020 20:00 655.30 0.00 65.0 69.0 --
08/31/2020 19:00 655.30 0.00 72.0 41.0 --
08/31/2020 18:00 655.30 0.00 71.9 40.0 --
08/31/2020 17:00 655.29 0.00 71.9 41.0 --
08/31/2020 16:00 655.30 0.00 71.1 44.0 --
08/31/2020 15:00 655.30 0.00 69.8 47.0 --
08/31/2020 14:00 655.30 0.00 68.4 46.0 --
08/31/2020 13:00 655.29 0.00 68.3 46.0 --
08/31/2020 12:00 655.30 0.00 65.9 52.0 --
08/31/2020 11:00 655.31 0.00 64.3 59.0 --
08/31/2020 10:00 655.31 0.00 60.4 81.0 --
08/31/2020 09:00 655.30 0.00 53.6 95.0 --
08/31/2020 08:00 655.30 0.00 50.1 100.0 --
08/31/2020 07:00 655.30 0.00 51.2 100.0 --
08/31/2020 06:00 655.30 0.00 50.9 100.0 --
08/31/2020 05:00 655.31 0.00 50.7 100.0 --
08/31/2020 04:00 655.31 0.00 50.2 100.0 --
08/31/2020 03:00 655.30 0.00 49.6 100.0 --
08/31/2020 02:00 655.29 0.00 50.2 100.0 --
08/31/2020 01:00 655.31 0.00 54.3 84.0 --
08/31/2020 00:00 655.31 0.00 53.6 84.0 --
08/30/2020 23:00 655.31 0.00 55.0 80.0 --
08/30/2020 22:00 655.31 0.00 56.3 76.0 --
08/30/2020 21:00 655.31 0.00 57.7 72.0 --
08/30/2020 20:00 655.31 0.00 59.0 68.0 --
08/30/2020 19:00 655.32 0.00 60.4 64.0 --
08/30/2020 18:00 655.32 0.00 61.7 60.0 --
08/30/2020 17:00 655.32 0.00 63.1 56.0 --
08/30/2020 16:00 655.32 0.00 64.4 52.0 --
08/30/2020 15:00 655.32 0.00 65.8 48.0 --
08/30/2020 14:00 655.32 0.00 64.3 54.0 --
08/30/2020 13:00 655.31 0.00 64.5 54.0 --
08/30/2020 12:00 655.32 0.00 64.9 60.0 --
08/30/2020 11:00 655.32 0.00 64.6 58.0 --
08/30/2020 10:00 655.31 0.00 63.3 73.0 --
08/30/2020 09:00 655.29 0.00 62.1 79.0 --
08/30/2020 08:00 655.31 0.00 62.6 83.0 --
08/30/2020 07:00 655.32 0.00 63.2 79.0 --
08/30/2020 06:00 655.30 0.00 60.6 99.0 --
08/30/2020 05:00 655.30 0.00 61.9 98.0 --
08/30/2020 04:00 655.31 0.00 59.6 100.0 --
08/30/2020 03:00 655.30 0.00 60.6 100.0 --
08/30/2020 02:00 655.30 0.00 61.3 100.0 --
08/30/2020 01:00 655.31 0.00 62.9 100.0 --
08/30/2020 00:00 655.30 0.00 62.4 100.0 --
08/29/2020 23:00 655.31 0.00 62.7 100.0 --
08/29/2020 22:00 655.29 0.00 62.6 100.0 --
08/29/2020 21:00 655.29 0.00 62.8 100.0 --
08/29/2020 20:00 655.29 0.00 63.0 100.0 --
08/29/2020 19:00 655.29 0.00 62.5 100.0 --
08/29/2020 18:00 655.28 0.00 62.8 100.0 --
08/29/2020 17:00 655.28 0.00 61.7 100.0 --
08/29/2020 16:00 655.29 0.00 60.7 100.0 --
08/29/2020 15:00 655.29 0.00 61.5 100.0 --
08/29/2020 14:00 655.28 0.00 59.6 100.0 --
08/29/2020 13:00 655.28 0.00 58.2 100.0 --
08/29/2020 12:00 655.29 0.00 58.3 100.0 --
08/29/2020 11:00 655.29 0.00 57.9 100.0 --
08/29/2020 10:00 655.27 0.00 58.2 100.0 --
08/29/2020 09:00 655.24 0.00 58.5 100.0 --
08/29/2020 08:00 655.22 0.00 58.1 100.0 --
08/29/2020 07:00 655.22 0.00 59.0 100.0 --
08/29/2020 06:00 655.21 0.00 58.7 100.0 --
08/29/2020 05:00 655.21 0.00 58.8 100.0 --
08/29/2020 04:00 655.22 0.00 59.4 100.0 --
08/29/2020 03:00 655.22 0.00 58.8 100.0 --
08/29/2020 02:00 655.21 0.00 59.0 100.0 --
08/29/2020 01:00 655.22 0.00 59.2 100.0 --
08/29/2020 00:00 655.21 0.00 60.5 96.0 --
08/28/2020 23:00 655.22 0.00 61.8 92.0 --
08/28/2020 22:00 655.22 0.00 62.2 89.0 --
08/28/2020 21:00 655.22 0.00 63.7 81.0 --
08/28/2020 20:00 655.23 0.00 72.7 61.0 --
08/28/2020 19:00 655.23 0.00 73.6 57.0 --
08/28/2020 18:00 655.22 0.00 74.2 54.0 --
08/28/2020 17:00 655.22 0.00 73.5 56.0 --
08/28/2020 16:00 655.23 0.00 72.5 60.0 --
08/28/2020 15:00 655.22 0.00 71.1 64.0 --
08/28/2020 14:00 655.23 0.00 70.6 63.0 --
08/28/2020 13:00 655.23 0.00 69.3 67.0 --
08/28/2020 12:00 655.22 0.00 68.9 70.0 --
08/28/2020 11:00 655.23 0.00 66.6 75.0 --
08/28/2020 10:00 655.22 0.00 63.3 87.0 --
08/28/2020 09:00 655.24 0.00 60.0 98.0 --
08/28/2020 08:00 655.23 0.00 59.1 100.0 --
08/28/2020 07:00 655.22 0.00 58.8 100.0 --
08/28/2020 06:00 655.22 0.00 58.7 100.0 --
08/28/2020 05:00 655.23 0.00 59.2 100.0 --
08/28/2020 04:00 655.23 0.00 58.4 100.0 --
08/28/2020 03:00 655.23 0.00 56.7 100.0 --
08/28/2020 02:00 655.23 0.00 57.5 100.0 --
08/28/2020 01:00 655.24 0.00 58.1 100.0 --
08/28/2020 00:00 655.24 0.00 59.1 100.0 --
08/27/2020 23:00 655.23 0.00 59.2 100.0 --
08/27/2020 22:00 655.23 0.00 58.4 100.0 --
08/27/2020 21:00 655.24 0.00 58.8 100.0 --
08/27/2020 20:00 655.24 0.00 59.5 100.0 --
08/27/2020 19:00 655.23 0.00 59.5 100.0 --
08/27/2020 18:00 655.23 0.00 59.4 100.0 --
08/27/2020 17:00 655.24 0.00 59.5 99.0 --
08/27/2020 16:00 655.23 0.00 58.1 100.0 --
08/27/2020 15:00 655.22 0.00 56.4 100.0 --
08/27/2020 14:00 655.21 0.00 57.3 97.0 --
08/27/2020 13:00 655.21 0.00 60.0 70.0 --
08/27/2020 12:00 655.22 0.00 60.0 70.0 --
08/27/2020 11:00 655.22 0.00 57.8 70.0 --
08/27/2020 10:00 655.22 0.00 55.6 80.0 --
08/27/2020 09:00 655.23 0.00 53.7 87.0 --
08/27/2020 08:00 655.23 0.00 50.8 87.0 --
08/27/2020 07:00 655.23 0.00 49.2 95.0 --
08/27/2020 06:00 655.23 0.00 49.5 93.0 --
08/27/2020 05:00 655.22 0.00 49.7 89.0 --
08/27/2020 04:00 655.22 0.00 52.6 79.0 --
08/27/2020 03:00 655.23 0.00 52.6 82.0 --
08/27/2020 02:00 655.22 0.00 52.9 79.0 --
08/27/2020 01:00 655.23 0.00 54.2 72.0 --
08/27/2020 00:00 655.22 0.00 54.1 67.0 --
08/26/2020 23:00 655.23 0.00 57.3 59.0 --
08/26/2020 22:00 655.24 0.00 62.8 45.0 --
08/26/2020 21:00 655.24 0.00 64.5 42.0 --
08/26/2020 20:00 655.24 0.00 66.8 39.0 --
08/26/2020 19:00 655.27 0.00 67.5 36.0 --
08/26/2020 18:00 655.22 0.00 67.5 34.0 --
08/26/2020 17:00 655.26 0.00 67.9 33.0 --
08/26/2020 16:00 655.24 0.00 67.2 33.0 --
08/26/2020 15:00 655.25 0.00 65.6 35.0 --
08/26/2020 14:00 655.25 0.00 64.4 44.0 --
08/26/2020 13:00 655.24 0.00 62.0 47.0 --
08/26/2020 12:00 655.24 0.00 59.5 53.0 --
08/26/2020 11:00 655.25 0.00 58.6 60.0 --
08/26/2020 10:00 655.24 0.00 57.5 64.0 --
08/26/2020 09:00 655.25 0.00 56.8 64.0 --
08/26/2020 08:00 655.24 0.00 52.9 81.0 --
08/26/2020 07:00 655.25 0.00 57.7 70.0 --
08/26/2020 06:00 655.25 0.00 58.0 71.0 --
08/26/2020 05:00 655.25 0.00 54.6 86.0 --
08/26/2020 04:00 655.25 0.00 57.5 74.0 --
08/26/2020 03:00 655.25 0.00 60.7 68.0 --
08/26/2020 02:00 655.27 0.00 62.3 64.0 --
08/26/2020 01:00 655.25 0.00 57.9 100.0 --
08/26/2020 00:00 655.24 0.00 59.5 100.0 --
08/25/2020 23:00 655.24 0.00 62.3 89.0 --
08/25/2020 22:00 655.25 0.00 66.9 77.0 --
08/25/2020 21:00 655.26 0.00 68.2 93.0 --
08/25/2020 20:00 655.25 0.00 70.0 97.0 --
08/25/2020 19:00 655.25 0.00 68.0 100.0 --
08/25/2020 18:00 655.26 0.00 67.3 94.0 --
08/25/2020 17:00 655.23 0.00 82.3 46.0 --
08/25/2020 16:00 655.25 0.00 81.6 50.0 --
08/25/2020 15:00 655.26 0.00 81.8 49.0 --
08/25/2020 14:00 655.25 0.00 81.1 53.0 --
08/25/2020 13:00 655.24 0.00 79.2 56.0 --
08/25/2020 12:00 655.24 0.00 77.6 64.0 --
08/25/2020 11:00 655.24 0.00 76.1 72.0 --
08/25/2020 10:00 655.25 0.00 73.9 80.0 --
08/25/2020 09:00 655.26 0.00 71.5 90.0 --
08/25/2020 08:00 655.26 0.00 67.3 100.0 --
08/25/2020 07:00 655.25 0.00 67.0 100.0 --
08/25/2020 06:00 655.25 0.00 66.9 100.0 --
08/25/2020 05:00 655.25 0.00 67.4 100.0 --
08/25/2020 04:00 655.26 0.00 68.4 100.0 --
08/25/2020 03:00 655.26 0.00 69.7 100.0 --
08/25/2020 02:00 655.26 0.00 70.5 100.0 --
08/25/2020 01:00 655.25 0.00 70.4 100.0 --
08/25/2020 00:00 655.26 0.00 71.3 97.0 --
08/24/2020 23:00 655.25 0.00 70.3 94.0 --
08/24/2020 22:00 655.25 0.00 70.7 88.0 --
08/24/2020 21:00 655.25 0.00 72.7 78.0 --
08/24/2020 20:00 655.25 0.00 76.3 74.0 --
08/24/2020 19:00 655.24 0.00 81.1 57.0 --
08/24/2020 18:00 655.25 0.00 86.1 48.0 --
08/24/2020 17:00 655.26 0.00 80.7 64.0 --
08/24/2020 16:00 655.24 0.00 84.4 57.0 --
08/24/2020 15:00 655.25 0.00 85.6 52.0 --
08/24/2020 14:00 655.26 0.00 84.0 48.0 --
08/24/2020 13:00 655.26 0.00 82.9 52.0 --
08/24/2020 12:00 655.26 0.00 78.0 68.0 --
08/24/2020 11:00 655.26 0.00 73.0 94.0 --
08/24/2020 10:00 655.26 0.00 68.6 100.0 --
08/24/2020 09:00 655.26 0.00 66.9 100.0 --
08/24/2020 08:00 655.26 0.00 66.0 100.0 --
08/24/2020 07:00 655.26 0.00 64.7 100.0 --
08/24/2020 06:00 655.26 0.00 64.3 100.0 --
08/24/2020 05:00 655.26 0.00 65.6 100.0 --
08/24/2020 04:00 655.27 0.00 66.9 100.0 --
08/24/2020 03:00 655.25 0.00 67.3 100.0 --
08/24/2020 02:00 655.26 0.00 69.0 100.0 --
08/24/2020 01:00 655.27 0.00 68.9 100.0 --
08/24/2020 00:00 655.25 0.00 68.3 100.0 --
08/23/2020 23:00 655.27 0.00 72.8 76.0 --
08/23/2020 22:00 655.26 0.00 72.2 73.0 --
08/23/2020 21:00 655.26 0.00 73.5 71.0 --
08/23/2020 20:00 655.26 0.00 79.7 59.0 --
08/23/2020 19:00 655.26 0.00 80.0 59.0 --
08/23/2020 18:00 655.25 0.00 82.9 53.0 --
08/23/2020 17:00 655.27 0.00 80.4 60.0 --
08/23/2020 16:00 655.26 0.00 83.7 49.0 --
08/23/2020 15:00 655.27 0.00 84.8 50.0 --
08/23/2020 14:00 655.27 0.00 83.7 53.0 --
08/23/2020 13:00 655.27 0.00 80.5 57.0 --
08/23/2020 12:00 655.26 0.00 79.2 59.0 --
08/23/2020 11:00 655.26 0.00 73.5 79.0 --
08/23/2020 10:00 655.26 0.00 69.8 89.0 --
08/23/2020 09:00 655.26 0.00 63.3 100.0 --
08/23/2020 08:00 655.27 0.00 60.9 100.0 --
08/23/2020 07:00 655.27 0.00 60.3 100.0 --
08/23/2020 06:00 655.27 0.00 61.2 100.0 --
08/23/2020 05:00 655.26 0.00 61.9 100.0 --
08/23/2020 04:00 655.26 0.00 62.9 100.0 --
08/23/2020 03:00 655.26 0.00 62.3 100.0 --
08/23/2020 02:00 655.27 0.00 64.0 100.0 --
08/23/2020 01:00 655.26 0.00 65.1 100.0 --
08/23/2020 00:00 655.26 0.00 65.3 100.0 --
08/22/2020 23:00 655.27 0.00 68.5 88.0 --
08/22/2020 22:00 655.27 0.00 70.8 79.0 --
08/22/2020 21:00 655.26 0.00 71.8 69.0 --
08/22/2020 20:00 655.27 0.00 80.7 45.0 --
08/22/2020 19:00 655.26 0.00 82.2 42.0 --
08/22/2020 18:00 655.27 0.00 82.4 44.0 --
08/22/2020 17:00 655.28 0.00 81.3 49.0 --
08/22/2020 16:00 655.27 0.00 79.6 53.0 --
08/22/2020 15:00 655.30 0.00 78.7 56.0 --
08/22/2020 14:00 655.29 0.00 75.2 67.0 --
08/22/2020 13:00 655.28 0.00 71.8 81.0 --
08/22/2020 12:00 655.26 0.00 68.3 100.0 --
08/22/2020 11:00 655.27 0.00 68.9 93.0 --
08/22/2020 10:00 655.27 0.00 67.0 92.0 --
08/22/2020 09:00 655.28 0.00 62.1 100.0 --
08/22/2020 08:00 655.28 0.00 60.2 100.0 --
08/22/2020 07:00 655.28 0.00 60.5 100.0 --
08/22/2020 06:00 655.27 0.00 60.7 100.0 --
08/22/2020 05:00 655.28 0.00 61.3 100.0 --
08/22/2020 04:00 655.28 0.00 61.9 100.0 --
08/22/2020 03:00 655.27 0.00 62.3 100.0 --
08/22/2020 02:00 655.28 0.00 62.9 100.0 --
08/22/2020 01:00 655.27 0.00 63.3 100.0 --
08/22/2020 00:00 655.27 0.00 61.8 100.0 --
08/21/2020 23:00 655.28 0.00 63.8 100.0 --
08/21/2020 22:00 655.28 0.00 64.3 100.0 --
08/21/2020 21:00 655.26 0.00 66.4 100.0 --
08/21/2020 20:00 655.26 0.00 67.2 89.0 --
08/21/2020 19:00 655.28 0.00 82.8 39.0 --
08/21/2020 18:00 655.29 0.00 84.0 38.0 --
08/21/2020 17:00 655.25 0.00 83.9 36.0 --
08/21/2020 16:00 655.27 0.00 82.8 39.0 --
08/21/2020 15:00 655.30 0.00 81.2 42.0 --
08/21/2020 14:00 655.29 0.00 80.0 44.0 --
08/21/2020 13:00 655.28 0.00 77.2 45.0 --
08/21/2020 12:00 655.29 0.00 74.2 51.0 --
08/21/2020 11:00 655.29 0.00 71.5 57.0 --
08/21/2020 10:00 655.29 0.00 67.4 66.0 --
08/21/2020 09:00 655.30 0.00 63.5 73.0 --
08/21/2020 08:00 655.29 0.00 56.0 100.0 --
08/21/2020 07:00 655.29 0.00 55.3 100.0 --
08/21/2020 06:00 655.29 0.00 55.0 100.0 --
08/21/2020 05:00 655.29 0.00 55.8 100.0 --
08/21/2020 04:00 655.29 0.00 56.6 100.0 --
08/21/2020 03:00 655.29 0.00 56.4 99.0 --
08/21/2020 02:00 655.29 0.00 57.0 97.0 --
08/21/2020 01:00 655.30 0.00 57.7 90.0 --
08/21/2020 00:00 655.30 0.00 59.2 86.0 --
08/20/2020 23:00 655.30 0.00 61.0 80.0 --
08/20/2020 22:00 655.29 0.00 63.3 78.0 --
08/20/2020 21:00 655.30 0.00 64.0 68.0 --
08/20/2020 20:00 655.30 0.00 74.1 46.0 --
08/20/2020 19:00 655.29 0.00 75.1 39.0 --
08/20/2020 18:00 655.30 0.00 74.8 39.0 --
08/20/2020 17:00 655.30 0.00 73.8 40.0 --
08/20/2020 16:00 655.30 0.00 72.6 41.0 --
08/20/2020 15:00 655.30 0.00 71.3 43.0 --
08/20/2020 14:00 655.29 0.00 69.4 42.0 --
08/20/2020 13:00 655.31 0.00 69.1 45.0 --
08/20/2020 12:00 655.30 0.00 66.7 49.0 --
08/20/2020 11:00 655.31 0.00 63.9 68.0 --
08/20/2020 10:00 655.31 0.00 61.9 75.0 --
08/20/2020 09:00 655.30 0.00 57.0 100.0 --
08/20/2020 08:00 655.31 0.00 52.7 100.0 --
08/20/2020 07:00 655.31 0.00 52.1 100.0 --
08/20/2020 06:00 655.30 0.00 53.4 100.0 --
08/20/2020 05:00 655.30 0.00 54.2 100.0 --
08/20/2020 04:00 655.31 0.00 54.2 100.0 --
08/20/2020 03:00 655.31 0.00 55.0 100.0 --
08/20/2020 02:00 655.31 0.00 55.3 100.0 --
08/20/2020 01:00 655.31 0.00 56.1 100.0 --
08/20/2020 00:00 655.32 0.00 57.7 100.0 --
08/19/2020 23:00 655.31 0.00 59.5 100.0 --
08/19/2020 22:00 655.32 0.00 60.1 100.0 --
08/19/2020 21:00 655.32 0.00 61.6 100.0 --
08/19/2020 20:00 655.32 0.00 66.9 87.0 --
08/19/2020 19:00 655.33 0.00 66.6 92.0 --
08/19/2020 18:00 655.32 0.00 65.7 94.0 --
08/19/2020 17:00 655.29 0.00 62.7 96.0 --
08/19/2020 16:00 655.30 0.00 75.0 38.0 --
08/19/2020 15:00 655.31 0.00 74.1 39.0 --
08/19/2020 14:00 655.29 0.00 73.0 43.0 --
08/19/2020 13:00 655.30 0.00 71.6 47.0 --
08/19/2020 12:00 655.31 0.00 69.9 58.0 --
08/19/2020 11:00 655.30 0.00 66.5 66.0 --
08/19/2020 10:00 655.30 0.00 64.6 79.0 --
08/19/2020 09:00 655.29 0.00 59.9 93.0 --
08/19/2020 08:00 655.31 0.00 55.4 100.0 --
08/19/2020 07:00 655.31 0.00 54.1 100.0 --
08/19/2020 06:00 655.30 0.00 55.4 100.0 --
08/19/2020 05:00 655.30 0.00 56.6 100.0 --
08/19/2020 04:00 655.30 0.00 57.3 100.0 --
08/19/2020 03:00 655.31 0.00 57.9 100.0 --
08/19/2020 02:00 655.30 0.00 56.7 100.0 --
08/19/2020 01:00 655.30 0.00 59.4 100.0 --
08/19/2020 00:00 655.31 0.00 62.2 97.0 --
08/18/2020 23:00 655.31 0.00 60.9 100.0 --
08/18/2020 22:00 655.30 0.00 62.0 100.0 --
08/18/2020 21:00 655.32 0.00 65.2 91.0 --
08/18/2020 20:00 655.32 0.00 70.7 73.0 --
08/18/2020 19:00 655.32 0.00 69.6 64.0 --
08/18/2020 18:00 655.31 0.00 76.9 41.0 --
08/18/2020 17:00 655.31 0.00 77.8 37.0 --
08/18/2020 16:00 655.31 0.00 77.1 41.0 --
08/18/2020 15:00 655.32 0.00 76.5 43.0 --
08/18/2020 14:00 655.33 0.00 75.8 43.0 --
08/18/2020 13:00 655.33 0.00 75.4 49.0 --
08/18/2020 12:00 655.32 0.00 73.2 61.0 --
08/18/2020 11:00 655.32 0.00 70.7 74.0 --
08/18/2020 10:00 655.32 0.00 67.6 87.0 --
08/18/2020 09:00 655.32 0.00 63.3 100.0 --
08/18/2020 08:00 655.32 0.00 61.7 100.0 --
08/18/2020 07:00 655.31 0.00 61.8 100.0 --
08/18/2020 06:00 655.31 0.00 62.4 100.0 --
08/18/2020 05:00 655.31 0.00 62.3 100.0 --
08/18/2020 04:00 655.31 0.00 63.3 100.0 --
08/18/2020 03:00 655.31 0.00 64.1 100.0 --
08/18/2020 02:00 655.32 0.00 65.2 97.0 --
08/18/2020 01:00 655.32 0.00 65.6 87.0 --
08/18/2020 00:00 655.31 0.00 65.3 89.0 --
08/17/2020 23:00 655.32 0.00 67.2 81.0 --
08/17/2020 22:00 655.32 0.00 70.2 71.0 --
08/17/2020 21:00 655.32 0.00 72.8 64.0 --
08/17/2020 20:00 655.33 0.00 76.1 55.0 --
08/17/2020 19:00 655.32 0.00 78.0 50.0 --
08/17/2020 18:00 655.33 0.00 77.3 51.0 --
08/17/2020 17:00 655.33 0.00 77.9 48.0 --
08/17/2020 16:00 655.32 0.00 76.6 47.0 --
08/17/2020 15:00 655.32 0.00 75.6 50.0 --
08/17/2020 14:00 655.32 0.00 72.5 56.0 --
08/17/2020 13:00 655.33 0.00 71.3 54.0 --
08/17/2020 12:00 655.33 0.00 69.6 61.0 --
08/17/2020 11:00 655.33 0.00 67.2 64.0 --
08/17/2020 10:00 655.33 0.00 65.2 77.0 --
08/17/2020 09:00 655.33 0.00 62.9 94.0 --
08/17/2020 08:00 655.33 0.00 58.2 100.0 --
08/17/2020 07:00 655.32 0.00 59.6 100.0 --
08/17/2020 06:00 655.32 0.00 61.3 97.0 --
08/17/2020 05:00 655.33 0.00 61.6 96.0 --
08/17/2020 04:00 655.33 0.00 61.8 96.0 --
08/17/2020 03:00 655.33 0.00 62.4 95.0 --
08/17/2020 02:00 655.33 0.00 62.5 93.0 --
08/17/2020 01:00 655.34 0.00 62.7 94.0 --
08/17/2020 00:00 655.33 0.00 62.9 92.0 --
08/16/2020 23:00 655.33 0.00 62.8 94.0 --
08/16/2020 22:00 655.34 0.00 63.3 91.0 --
08/16/2020 21:00 655.34 0.00 64.7 87.0 --
08/16/2020 20:00 655.33 0.00 65.6 85.0 --
08/16/2020 19:00 655.34 0.00 66.6 81.0 --
08/16/2020 18:00 655.33 0.00 67.4 77.0 --
08/16/2020 17:00 655.33 0.00 68.0 75.0 --
08/16/2020 16:00 655.34 0.00 68.5 73.0 --
08/16/2020 15:00 655.33 0.00 68.1 79.0 --
08/16/2020 14:00 655.34 0.00 66.7 84.0 --
08/16/2020 13:00 655.34 0.00 66.0 89.0 --
08/16/2020 12:00 655.33 0.00 63.9 94.0 --
08/16/2020 11:00 655.35 0.00 62.7 100.0 --
08/16/2020 10:00 655.34 0.00 62.1 100.0 --
08/16/2020 09:00 655.34 0.00 60.1 100.0 --
08/16/2020 08:00 655.34 0.00 58.2 100.0 --
08/16/2020 07:00 655.35 0.00 57.3 100.0 --
08/16/2020 06:00 655.34 0.00 58.7 100.0 --
08/16/2020 05:00 655.35 0.00 57.2 100.0 --
08/16/2020 04:00 655.34 0.00 57.9 100.0 --
08/16/2020 03:00 655.34 0.00 57.6 100.0 --
08/16/2020 02:00 655.34 0.00 58.5 100.0 --
08/16/2020 01:00 655.34 0.00 60.7 100.0 --
08/16/2020 00:00 655.34 0.00 60.1 100.0 --
08/15/2020 23:00 655.35 0.00 61.6 100.0 --
08/15/2020 22:00 655.34 0.00 64.4 100.0 --
08/15/2020 21:00 655.35 0.00 67.1 91.0 --
08/15/2020 20:00 655.35 0.00 71.0 75.0 --
08/15/2020 19:00 655.35 0.00 73.2 70.0 --
08/15/2020 18:00 655.35 0.00 70.6 76.0 --
08/15/2020 17:00 655.35 0.00 69.6 77.0 --
08/15/2020 16:00 655.35 0.00 69.3 78.0 --
08/15/2020 15:00 655.36 0.00 68.0 83.0 --
08/15/2020 14:00 655.35 0.00 67.9 84.0 --
08/15/2020 13:00 655.36 0.00 66.8 85.0 --
08/15/2020 12:00 655.35 0.00 66.9 83.0 --
08/15/2020 11:00 655.35 0.00 66.5 84.0 --
08/15/2020 10:00 655.35 0.00 65.2 85.0 --
08/15/2020 09:00 655.35 0.00 63.8 93.0 --
08/15/2020 08:00 655.35 0.00 59.6 100.0 --
08/15/2020 07:00 655.36 0.00 57.8 100.0 --
08/15/2020 06:00 655.36 0.00 58.5 100.0 --
08/15/2020 05:00 655.36 0.00 61.2 100.0 --
08/15/2020 04:00 655.36 0.00 61.9 96.0 --
08/15/2020 03:00 655.37 0.00 63.4 90.0 --
08/15/2020 02:00 655.37 0.00 65.1 79.0 --
08/15/2020 01:00 655.36 0.00 65.4 78.0 --
08/15/2020 00:00 655.36 0.00 65.8 73.0 --
08/14/2020 23:00 655.36 0.00 67.3 70.0 --
08/14/2020 22:00 655.37 0.00 69.9 66.0 --
08/14/2020 21:00 655.37 0.00 74.2 61.0 --
08/14/2020 20:00 655.37 0.00 75.8 65.0 --
08/14/2020 19:00 655.36 0.00 79.1 57.0 --
08/14/2020 18:00 655.37 0.00 80.6 49.0 --
08/14/2020 17:00 655.37 0.00 83.6 37.0 --
08/14/2020 16:00 655.37 0.00 83.6 38.0 --
08/14/2020 15:00 655.38 0.00 81.9 41.0 --
08/14/2020 14:00 655.36 0.00 81.2 45.0 --
08/14/2020 13:00 655.37 0.00 79.8 49.0 --
08/14/2020 12:00 655.37 0.00 78.0 54.0 --
08/14/2020 11:00 655.37 0.00 76.3 58.0 --
08/14/2020 10:00 655.38 0.00 70.5 79.0 --
08/14/2020 09:00 655.37 0.00 65.1 97.0 --
08/14/2020 08:00 655.38 0.00 62.8 100.0 --
08/14/2020 07:00 655.38 0.00 62.5 100.0 --
08/14/2020 06:00 655.38 0.00 63.3 100.0 --
08/14/2020 05:00 655.37 0.00 62.8 100.0 --
08/14/2020 04:00 655.38 0.00 64.9 100.0 --
08/14/2020 03:00 655.38 0.00 65.3 100.0 --
08/14/2020 02:00 655.38 0.00 66.4 99.0 --
08/14/2020 01:00 655.38 0.00 67.5 93.0 --
08/14/2020 00:00 655.38 0.00 68.7 87.0 --
08/13/2020 23:00 655.38 0.00 70.7 81.0 --
08/13/2020 22:00 655.38 0.00 72.4 78.0 --
08/13/2020 21:00 655.38 0.00 72.1 76.0 --
08/13/2020 20:00 655.38 0.00 78.1 68.0 --
08/13/2020 19:00 655.38 0.00 79.4 67.0 --
08/13/2020 18:00 655.39 0.00 78.2 68.0 --
08/13/2020 17:00 655.39 0.00 82.9 46.0 --
08/13/2020 16:00 655.38 0.00 82.0 43.0 --
08/13/2020 15:00 655.39 0.00 82.5 43.0 --
08/13/2020 14:00 655.39 0.00 81.6 54.0 --
08/13/2020 13:00 655.39 0.00 81.2 46.0 --
08/13/2020 12:00 655.38 0.00 80.7 50.0 --
08/13/2020 11:00 655.39 0.00 75.1 68.0 --
08/13/2020 10:00 655.39 0.00 70.3 79.0 --
08/13/2020 09:00 655.38 0.00 65.7 88.0 --
08/13/2020 08:00 655.38 0.00 62.3 100.0 --
08/13/2020 07:00 655.39 0.00 62.8 100.0 --
08/13/2020 06:00 655.39 0.00 62.9 99.0 --
08/13/2020 05:00 655.40 0.00 64.0 100.0 --
08/13/2020 04:00 655.38 0.00 65.3 98.0 --
08/13/2020 03:00 655.39 0.00 66.4 94.0 --
08/13/2020 02:00 655.39 0.00 68.0 89.0 --
08/13/2020 01:00 655.39 0.00 69.6 84.0 --
08/13/2020 00:00 655.39 0.00 71.2 78.0 --
08/12/2020 23:00 655.39 0.00 73.0 73.0 --
08/12/2020 22:00 655.40 0.00 73.1 72.0 --
08/12/2020 21:00 655.39 0.00 77.8 67.0 --
08/12/2020 20:00 655.39 0.00 84.5 48.0 --
08/12/2020 19:00 655.40 0.00 84.9 48.0 --
08/12/2020 18:00 655.38 0.00 84.2 58.0 --
08/12/2020 17:00 655.40 0.00 85.9 46.0 --
08/12/2020 16:00 655.41 0.00 85.0 44.0 --
08/12/2020 15:00 655.40 0.00 84.0 50.0 --
08/12/2020 14:00 655.40 0.00 82.7 53.0 --
08/12/2020 13:00 655.39 0.00 81.4 58.0 --
08/12/2020 12:00 655.40 0.00 79.4 60.0 --
08/12/2020 11:00 655.40 0.00 78.0 65.0 --
08/12/2020 10:00 655.40 0.00 75.3 77.0 --
08/12/2020 09:00 655.41 0.00 73.6 85.0 --
08/12/2020 08:00 655.40 0.00 70.5 100.0 --
08/12/2020 07:00 655.41 0.00 72.8 92.0 --
08/12/2020 06:00 655.41 0.00 73.0 97.0 --
08/12/2020 05:00 655.39 0.00 74.1 94.0 --
08/12/2020 04:00 655.41 0.00 74.8 90.0 --
08/12/2020 03:00 655.41 0.00 76.4 84.0 --
08/12/2020 02:00 655.41 0.00 77.5 79.0 --
08/12/2020 01:00 655.40 0.00 78.2 76.0 --
08/12/2020 00:00 655.41 0.00 79.2 67.0 --
08/11/2020 23:00 655.41 0.00 80.7 67.0 --
08/11/2020 22:00 655.40 0.00 80.9 66.0 --
08/11/2020 21:00 655.39 0.00 82.2 65.0 --
08/11/2020 20:00 655.40 0.00 87.8 55.0 --
08/11/2020 19:00 655.40 0.00 89.3 48.0 --
08/11/2020 18:00 655.41 0.00 89.2 48.0 --
08/11/2020 17:00 655.40 0.00 88.2 49.0 --
08/11/2020 16:00 655.42 0.00 88.6 44.0 --
08/11/2020 15:00 655.41 0.00 87.4 47.0 --
08/11/2020 14:00 655.43 0.00 87.3 50.0 --
08/11/2020 13:00 655.42 0.00 85.5 57.0 --
08/11/2020 12:00 655.42 0.00 84.1 61.0 --
08/11/2020 11:00 655.41 0.00 80.4 70.0 --
08/11/2020 10:00 655.40 0.00 75.9 80.0 --
08/11/2020 09:00 655.41 0.00 73.1 94.0 --
08/11/2020 08:00 655.41 0.00 69.7 100.0 --
08/11/2020 07:00 655.40 0.00 68.9 100.0 --
08/11/2020 06:00 655.41 0.00 68.2 100.0 --
08/11/2020 05:00 655.41 0.00 68.5 100.0 --
08/11/2020 04:00 655.41 0.00 69.6 100.0 --
08/11/2020 03:00 655.41 0.00 69.7 100.0 --
08/11/2020 02:00 655.41 0.00 71.7 93.0 --
08/11/2020 01:00 655.41 0.00 75.5 86.0 --
08/11/2020 00:00 655.42 0.00 73.8 90.0 --
08/10/2020 23:00 655.42 0.00 74.1 94.0 --
08/10/2020 22:00 655.42 0.00 75.6 88.0 --
08/10/2020 21:00 655.42 0.00 77.2 84.0 --
08/10/2020 20:00 655.42 0.00 79.4 75.0 --
08/10/2020 19:00 655.42 0.00 86.7 50.0 --
08/10/2020 18:00 655.42 0.00 86.9 46.0 --
08/10/2020 17:00 655.41 0.00 86.6 49.0 --
08/10/2020 16:00 655.41 0.00 85.5 51.0 --
08/10/2020 15:00 655.41 0.00 84.9 50.0 --
08/10/2020 14:00 655.43 0.00 83.5 55.0 --
08/10/2020 13:00 655.43 0.00 82.3 57.0 --
08/10/2020 12:00 655.43 0.00 80.9 62.0 --
08/10/2020 11:00 655.41 0.00 78.4 68.0 --
08/10/2020 10:00 655.42 0.00 74.9 80.0 --
08/10/2020 09:00 655.43 0.00 70.3 100.0 --
08/10/2020 08:00 655.41 0.00 66.8 100.0 --
08/10/2020 07:00 655.42 0.00 66.7 100.0 --
08/10/2020 06:00 655.42 0.00 66.5 100.0 --
08/10/2020 05:00 655.42 0.00 67.4 100.0 --
08/10/2020 04:00 655.42 0.00 68.0 100.0 --
08/10/2020 03:00 655.41 0.00 68.6 100.0 --
08/10/2020 02:00 655.42 0.00 69.7 100.0 --
08/10/2020 01:00 655.41 0.00 70.8 100.0 --
08/10/2020 00:00 655.41 0.00 72.0 97.0 --
08/09/2020 23:00 655.42 0.00 72.8 90.0 --
08/09/2020 22:00 655.42 0.00 74.2 87.0 --
08/09/2020 21:00 655.42 0.00 74.7 81.0 --
08/09/2020 20:00 655.41 0.00 77.7 70.0 --
08/09/2020 19:00 655.42 0.00 83.1 56.0 --
08/09/2020 18:00 655.43 0.00 84.9 47.0 --
08/09/2020 17:00 655.44 0.00 84.3 46.0 --
08/09/2020 16:00 655.43 0.00 83.9 45.0 --
08/09/2020 15:00 655.43 0.00 82.0 51.0 --
08/09/2020 14:00 655.43 0.00 82.5 47.0 --
08/09/2020 13:00 655.43 0.00 81.0 58.0 --
08/09/2020 12:00 655.43 0.00 79.7 65.0 --
08/09/2020 11:00 655.43 0.00 76.7 75.0 --
08/09/2020 10:00 655.43 0.00 72.7 88.0 --
08/09/2020 09:00 655.43 0.00 69.3 99.0 --
08/09/2020 08:00 655.43 0.00 66.8 100.0 --
08/09/2020 07:00 655.43 0.00 65.4 100.0 --
08/09/2020 06:00 655.44 0.00 65.7 100.0 --
08/09/2020 05:00 655.43 0.00 65.1 100.0 --
08/09/2020 04:00 655.43 0.00 65.3 100.0 --
08/09/2020 03:00 655.44 0.00 65.8 100.0 --
08/09/2020 02:00 655.44 0.00 66.3 100.0 --
08/09/2020 01:00 655.43 0.00 65.5 100.0 --
08/09/2020 00:00 655.43 0.00 68.2 100.0 --
08/08/2020 23:00 655.43 0.00 68.7 100.0 --
08/08/2020 22:00 655.43 0.00 70.2 99.0 --
08/08/2020 21:00 655.42 0.00 70.4 97.0 --
08/08/2020 20:00 655.43 0.00 77.1 77.0 --
08/08/2020 19:00 655.44 0.00 74.8 81.0 --
08/08/2020 18:00 655.43 0.00 80.5 58.0 --
08/08/2020 17:00 655.43 0.00 80.3 52.0 --
08/08/2020 16:00 655.43 0.00 79.1 55.0 --
08/08/2020 15:00 655.43 0.00 77.5 57.0 --
08/08/2020 14:00 655.44 0.00 73.2 74.0 --
08/08/2020 13:00 655.44 0.00 69.6 94.0 --
08/08/2020 12:00 655.43 0.00 67.2 100.0 --
08/08/2020 11:00 655.42 0.00 65.0 100.0 --
08/08/2020 10:00 655.41 0.00 64.5 100.0 --
08/08/2020 09:00 655.42 0.00 65.1 95.0 --
08/08/2020 08:00 655.41 0.00 64.0 100.0 --
08/08/2020 07:00 655.40 0.00 63.1 100.0 --
08/08/2020 06:00 655.41 0.00 62.9 100.0 --
08/08/2020 05:00 655.41 0.00 63.4 100.0 --
08/08/2020 04:00 655.40 0.00 63.9 96.0 --
08/08/2020 03:00 655.40 0.00 65.5 86.0 --
08/08/2020 02:00 655.41 0.00 63.9 93.0 --
08/08/2020 01:00 655.41 0.00 64.2 89.0 --
08/08/2020 00:00 655.41 0.00 64.7 89.0 --
08/07/2020 23:00 655.41 0.00 65.5 83.0 --
08/07/2020 22:00 655.41 0.00 66.7 78.0 --
08/07/2020 21:00 655.41 0.00 71.4 63.0 --
08/07/2020 20:00 655.40 0.00 72.5 74.0 --
08/07/2020 19:00 655.41 0.00 75.8 58.0 --
08/07/2020 18:00 655.41 0.00 79.5 45.0 --
08/07/2020 17:00 655.41 0.00 78.9 44.0 --
08/07/2020 16:00 655.41 0.00 79.6 39.0 --
08/07/2020 15:00 655.41 0.00 77.1 45.0 --
08/07/2020 14:00 655.41 0.00 76.2 47.0 --
08/07/2020 13:00 655.42 0.00 75.8 55.0 --
08/07/2020 12:00 655.41 0.00 70.8 65.0 --
08/07/2020 11:00 655.41 0.00 66.8 70.0 --
08/07/2020 10:00 655.42 0.00 64.3 86.0 --
08/07/2020 09:00 655.41 0.00 59.8 95.0 --
08/07/2020 08:00 655.42 0.00 57.4 100.0 --
08/07/2020 07:00 655.40 0.00 57.0 100.0 --
08/07/2020 06:00 655.42 0.00 57.1 100.0 --
08/07/2020 05:00 655.41 0.00 57.3 100.0 --
08/07/2020 04:00 655.41 0.00 57.7 100.0 --
08/07/2020 03:00 655.41 0.00 58.2 100.0 --
08/07/2020 02:00 655.42 0.00 58.9 100.0 --
08/07/2020 01:00 655.42 0.00 60.2 93.0 --
08/07/2020 00:00 655.41 0.00 61.7 89.0 --
08/06/2020 23:00 655.41 0.00 62.9 79.0 --
08/06/2020 22:00 655.42 0.00 64.7 79.0 --
08/06/2020 21:00 655.41 0.00 66.5 71.0 --
08/06/2020 20:00 655.41 0.00 73.1 56.0 --
08/06/2020 19:00 655.41 0.00 76.7 39.0 --
08/06/2020 18:00 655.42 0.00 76.9 41.0 --
08/06/2020 17:00 655.42 0.00 75.9 40.0 --
08/06/2020 16:00 655.42 0.00 74.5 44.0 --
08/06/2020 15:00 655.43 0.00 72.8 51.0 --
08/06/2020 14:00 655.43 0.00 72.6 50.0 --
08/06/2020 13:00 655.42 0.00 71.2 53.0 --
08/06/2020 12:00 655.41 0.00 71.2 49.0 --
08/06/2020 11:00 655.42 0.00 70.3 52.0 --
08/06/2020 10:00 655.43 0.00 68.9 64.0 --
08/06/2020 09:00 655.42 0.00 63.8 87.0 --
08/06/2020 08:00 655.41 0.00 55.3 100.0 --
08/06/2020 07:00 655.41 0.00 54.5 100.0 --
08/06/2020 06:00 655.43 0.00 54.7 100.0 --
08/06/2020 05:00 655.42 0.00 55.9 100.0 --
08/06/2020 04:00 655.42 0.00 57.1 100.0 --
08/06/2020 03:00 655.43 0.00 58.8 88.0 --
08/06/2020 02:00 655.42 0.00 59.5 92.0 --
08/06/2020 01:00 655.43 0.00 59.7 92.0 --
08/06/2020 00:00 655.42 0.00 60.9 86.0 --
08/05/2020 23:00 655.42 0.00 63.8 77.0 --
08/05/2020 22:00 655.43 0.00 69.1 64.0 --
08/05/2020 21:00 655.44 0.00 75.5 51.0 --
08/05/2020 20:00 655.43 0.00 78.2 48.0 --
08/05/2020 19:00 655.42 0.00 79.7 49.0 --
08/05/2020 18:00 655.42 0.00 80.9 47.0 --
08/05/2020 17:00 655.43 0.00 81.1 49.0 --
08/05/2020 16:00 655.42 0.00 80.7 51.0 --
08/05/2020 15:00 655.43 0.00 80.5 53.0 --
08/05/2020 14:00 655.43 0.00 77.6 62.0 --
08/05/2020 13:00 655.43 0.00 77.6 63.0 --
08/05/2020 12:00 655.43 0.00 76.6 65.0 --
08/05/2020 11:00 655.43 0.00 74.3 73.0 --
08/05/2020 10:00 655.43 0.00 72.1 81.0 --
08/05/2020 09:00 655.42 0.00 70.8 85.0 --
08/05/2020 08:00 655.42 0.00 67.8 100.0 --
08/05/2020 07:00 655.42 0.00 66.4 100.0 --
08/05/2020 06:00 655.42 0.00 67.4 95.0 --
08/05/2020 05:00 655.42 0.00 68.7 86.0 --
08/05/2020 04:00 655.43 0.00 68.5 88.0 --
08/05/2020 03:00 655.42 0.00 69.3 88.0 --
08/05/2020 02:00 655.43 0.00 70.0 84.0 --
08/05/2020 01:00 655.44 0.00 70.4 83.0 --
08/05/2020 00:00 655.44 0.00 71.0 83.0 --
08/04/2020 23:00 655.44 0.01 72.1 85.0 --
08/04/2020 22:00 655.43 0.00 69.4 98.0 --
08/04/2020 21:00 655.45 0.00 70.5 98.0 --
08/04/2020 20:00 655.43 0.00 72.7 100.0 --
08/04/2020 19:00 655.41 0.00 73.3 100.0 --
08/04/2020 18:00 655.37 0.00 73.4 100.0 --
08/04/2020 17:00 655.37 0.00 75.0 100.0 --
08/04/2020 16:00 655.35 0.00 73.9 99.0 --
08/04/2020 15:00 655.36 0.00 73.3 93.0 --
08/04/2020 14:00 655.36 0.00 73.6 85.0 --
08/04/2020 13:00 655.36 0.00 71.3 90.0 --
08/04/2020 12:00 655.36 0.00 70.8 93.0 --
08/04/2020 11:00 655.37 0.00 69.1 100.0 --
08/04/2020 10:00 655.35 0.00 68.1 100.0 --
08/04/2020 09:00 655.36 0.00 67.1 100.0 --
08/04/2020 08:00 655.36 0.00 65.5 100.0 --
08/04/2020 07:00 655.36 0.00 65.3 100.0 --
08/04/2020 06:00 655.37 0.00 67.3 100.0 --
08/04/2020 05:00 655.36 0.00 65.4 100.0 --
08/04/2020 04:00 655.35 0.00 68.0 90.0 --
08/04/2020 03:00 655.37 0.00 68.4 89.0 --
08/04/2020 02:00 655.36 0.00 68.7 85.0 --
08/04/2020 01:00 655.36 0.00 68.8 88.0 --
08/04/2020 00:00 655.37 0.00 69.7 82.0 --
08/03/2020 23:00 655.36 0.00 69.3 82.0 --
08/03/2020 22:00 655.36 0.00 71.0 75.0 --
08/03/2020 21:00 655.37 0.00 77.8 58.0 --
08/03/2020 20:00 655.37 0.00 80.3 51.0 --
08/03/2020 19:00 655.37 0.00 80.7 50.0 --
08/03/2020 18:00 655.38 0.00 80.7 52.0 --
08/03/2020 17:00 655.40 0.00 80.0 52.0 --
08/03/2020 16:00 655.41 0.00 80.6 51.0 --
08/03/2020 15:00 655.37 0.00 79.7 52.0 --
08/03/2020 14:00 655.39 0.00 78.8 56.0 --
08/03/2020 13:00 655.39 0.00 78.6 58.0 --
08/03/2020 12:00 655.39 0.00 78.0 62.0 --
08/03/2020 11:00 655.42 0.00 76.0 64.0 --
08/03/2020 10:00 655.37 0.00 75.7 72.0 --
08/03/2020 09:00 655.39 0.00 76.1 77.0 --
08/03/2020 08:00 655.39 0.00 75.4 88.0 --
08/03/2020 07:00 655.37 0.00 73.9 100.0 --
08/03/2020 06:00 655.38 0.00 74.3 100.0 --
08/03/2020 05:00 655.37 0.00 71.7 100.0 --
08/03/2020 04:00 655.38 0.00 72.5 100.0 --
08/03/2020 03:00 655.37 0.00 73.4 100.0 --
08/03/2020 02:00 655.39 0.00 74.5 100.0 --
08/03/2020 01:00 655.38 0.00 75.3 100.0 --
08/03/2020 00:00 655.37 0.00 75.1 100.0 --
08/02/2020 23:00 655.38 0.00 74.6 100.0 --
08/02/2020 22:00 655.37 0.00 74.5 100.0 --
08/02/2020 21:00 655.38 0.00 74.4 100.0 --
08/02/2020 20:00 655.38 0.00 74.5 98.0 --
08/02/2020 19:00 655.36 0.00 75.7 87.0 --
08/02/2020 18:00 655.38 0.00 78.1 80.0 --
08/02/2020 17:00 655.38 0.00 74.2 86.0 --
08/02/2020 16:00 655.38 0.00 79.9 62.0 --
08/02/2020 15:00 655.38 0.00 79.0 72.0 --
08/02/2020 14:00 655.38 0.00 74.7 94.0 --
08/02/2020 13:00 655.39 0.00 77.1 69.0 --
08/02/2020 12:00 655.38 0.00 76.1 74.0 --
08/02/2020 11:00 655.38 0.00 71.4 92.0 --
08/02/2020 10:00 655.38 0.00 68.6 98.0 --
08/02/2020 09:00 655.38 0.00 66.9 100.0 --
08/02/2020 08:00 655.38 0.00 65.4 100.0 --
08/02/2020 07:00 655.38 0.00 64.2 100.0 --
08/02/2020 06:00 655.37 0.00 64.2 100.0 --
08/02/2020 05:00 655.38 0.00 66.2 100.0 --
08/02/2020 04:00 655.38 0.00 65.0 100.0 --
08/02/2020 03:00 655.39 0.00 64.5 100.0 --
08/02/2020 02:00 655.38 0.00 65.3 100.0 --
08/02/2020 01:00 655.38 0.00 66.7 99.0 --
08/02/2020 00:00 655.38 0.00 69.7 88.0 --
08/01/2020 23:00 655.39 0.00 68.8 86.0 --
08/01/2020 22:00 655.38 0.00 72.9 77.0 --
08/01/2020 21:00 655.39 0.00 72.9 71.0 --
08/01/2020 20:00 655.38 0.00 77.9 59.0 --
08/01/2020 19:00 655.39 0.00 84.9 43.0 --
08/01/2020 18:00 655.38 0.00 85.8 36.0 --
08/01/2020 17:00 655.39 0.00 84.2 39.0 --
08/01/2020 16:00 655.38 0.00 83.4 41.0 --
08/01/2020 15:00 655.39 0.00 81.8 42.0 --
08/01/2020 14:00 655.39 0.00 80.0 47.0 --
08/01/2020 13:00 655.40 0.00 78.2 54.0 --
08/01/2020 12:00 655.39 0.00 78.5 53.0 --
08/01/2020 11:00 655.39 0.00 75.7 61.0 --
08/01/2020 10:00 655.40 0.00 73.4 72.0 --
08/01/2020 09:00 655.39 0.00 67.2 89.0 --
08/01/2020 08:00 655.39 0.00 63.2 100.0 --
08/01/2020 07:00 655.40 0.00 62.8 100.0 --
08/01/2020 06:00 655.39 0.00 62.7 100.0 --
08/01/2020 05:00 655.39 0.00 63.0 100.0 --
08/01/2020 04:00 655.40 0.00 63.8 100.0 --
08/01/2020 03:00 655.39 0.00 65.0 100.0 --
08/01/2020 02:00 655.40 0.00 66.1 95.0 --
08/01/2020 01:00 655.39 0.00 67.0 91.0 --
08/01/2020 00:00 655.39 0.00 67.2 90.0 --
07/31/2020 23:00 655.39 0.00 70.6 75.0 --
07/31/2020 22:00 655.39 0.00 69.5 78.0 --
07/31/2020 21:00 655.40 0.00 73.8 69.0 --
07/31/2020 20:00 655.39 0.00 78.0 58.0 --
07/31/2020 19:00 655.40 0.00 83.7 40.0 --
07/31/2020 18:00 655.40 0.00 82.8 39.0 --
07/31/2020 17:00 655.40 0.00 82.5 34.0 --
07/31/2020 16:00 655.40 0.00 82.2 44.0 --
07/31/2020 15:00 655.40 0.00 80.0 49.0 --
07/31/2020 14:00 655.40 0.00 79.5 46.0 --
07/31/2020 13:00 655.40 0.00 79.1 53.0 --
07/31/2020 12:00 655.40 0.00 78.1 56.0 --
07/31/2020 11:00 655.40 0.00 74.8 62.0 --
07/31/2020 10:00 655.40 0.00 71.8 71.0 --
07/31/2020 09:00 655.41 0.00 66.8 86.0 --
07/31/2020 08:00 655.40 0.00 63.1 100.0 --
07/31/2020 07:00 655.41 0.00 62.4 100.0 --
07/31/2020 06:00 655.41 0.00 60.6 100.0 --
07/31/2020 05:00 655.41 0.00 64.0 97.0 --
07/31/2020 04:00 655.41 0.00 64.7 92.0 --
07/31/2020 03:00 655.41 0.00 64.8 90.0 --
07/31/2020 02:00 655.41 0.00 66.4 82.0 --
07/31/2020 01:00 655.41 0.00 65.4 87.0 --
07/31/2020 00:00 655.40 0.00 66.8 91.0 --
07/30/2020 23:00 655.39 0.00 67.9 91.0 --
07/30/2020 22:00 655.40 0.00 69.3 88.0 --
07/30/2020 21:00 655.41 0.00 73.8 81.0 --
07/30/2020 20:00 655.42 0.00 75.3 73.0 --
07/30/2020 19:00 655.41 0.00 80.7 53.0 --
07/30/2020 18:00 655.43 0.00 82.8 46.0 --
07/30/2020 17:00 655.43 0.00 82.2 53.0 --
07/30/2020 16:00 655.43 0.00 82.5 46.0 --
07/30/2020 15:00 655.41 0.00 81.7 49.0 --
07/30/2020 14:00 655.42 0.00 81.1 52.0 --
07/30/2020 13:00 655.41 0.00 79.2 60.0 --
07/30/2020 12:00 655.42 0.00 77.5 72.0 --
07/30/2020 11:00 655.42 0.00 74.3 77.0 --
07/30/2020 10:00 655.41 0.00 71.5 89.0 --
07/30/2020 09:00 655.42 0.00 67.8 100.0 --
07/30/2020 08:00 655.41 0.00 66.0 100.0 --
07/30/2020 07:00 655.42 0.00 66.3 100.0 --
07/30/2020 06:00 655.42 0.00 65.5 100.0 --
07/30/2020 05:00 655.42 0.00 66.9 100.0 --
07/30/2020 04:00 655.42 0.00 68.0 100.0 --
07/30/2020 03:00 655.43 0.00 67.1 100.0 --
07/30/2020 02:00 655.42 0.00 69.9 91.0 --
07/30/2020 01:00 655.42 0.00 70.4 82.0 --
07/30/2020 00:00 655.42 0.00 71.8 81.0 --
07/29/2020 23:00 655.41 0.00 74.0 76.0 --
07/29/2020 22:00 655.41 0.00 71.9 82.0 --
07/29/2020 21:00 655.41 0.00 73.5 74.0 --
07/29/2020 20:00 655.42 0.00 80.8 57.0 --
07/29/2020 19:00 655.42 0.00 85.3 43.0 --
07/29/2020 18:00 655.42 0.00 84.7 46.0 --
07/29/2020 17:00 655.42 0.00 84.7 41.0 --
07/29/2020 16:00 655.42 0.00 84.5 42.0 --
07/29/2020 15:00 655.44 0.00 82.6 45.0 --
07/29/2020 14:00 655.44 0.00 82.1 44.0 --
07/29/2020 13:00 655.42 0.00 80.8 46.0 --
07/29/2020 12:00 655.43 0.00 78.6 55.0 --
07/29/2020 11:00 655.43 0.00 76.5 58.0 --
07/29/2020 10:00 655.42 0.00 72.2 72.0 --
07/29/2020 09:00 655.43 0.00 67.4 83.0 --
07/29/2020 08:00 655.43 0.00 62.9 100.0 --
07/29/2020 07:00 655.43 0.00 62.0 100.0 --
07/29/2020 06:00 655.44 0.00 63.6 98.0 --
07/29/2020 05:00 655.44 0.00 64.9 95.0 --
07/29/2020 04:00 655.44 0.00 64.6 95.0 --
07/29/2020 03:00 655.43 0.00 65.0 91.0 --
07/29/2020 02:00 655.43 0.00 69.8 78.0 --
07/29/2020 01:00 655.42 0.00 70.6 74.0 --
07/29/2020 00:00 655.43 0.00 72.5 72.0 --
07/28/2020 23:00 655.44 0.00 74.7 70.0 --
07/28/2020 22:00 655.44 0.00 75.2 68.0 --
07/28/2020 21:00 655.43 0.00 74.6 71.0 --
07/28/2020 20:00 655.44 0.00 80.4 56.0 --
07/28/2020 19:00 655.44 0.00 81.3 56.0 --
07/28/2020 18:00 655.44 0.00 83.2 51.0 --
07/28/2020 17:00 655.43 0.00 82.8 63.0 --
07/28/2020 16:00 655.45 0.00 83.1 63.0 --
07/28/2020 15:00 655.44 0.00 81.2 63.0 --
07/28/2020 14:00 655.44 0.00 80.0 73.0 --
07/28/2020 13:00 655.45 0.00 76.9 91.0 --
07/28/2020 12:00 655.45 0.00 75.7 100.0 --
07/28/2020 11:00 655.43 0.00 81.6 72.0 --
07/28/2020 10:00 655.44 0.00 80.2 77.0 --
07/28/2020 09:00 655.43 0.00 79.0 77.0 --
07/28/2020 08:00 655.44 0.00 77.7 79.0 --
07/28/2020 07:00 655.43 0.00 77.8 80.0 --
07/28/2020 06:00 655.43 0.00 79.0 74.0 --
07/28/2020 05:00 655.43 0.00 80.2 71.0 --
07/28/2020 04:00 655.45 0.00 80.3 71.0 --
07/28/2020 03:00 655.44 0.00 79.4 71.0 --
07/28/2020 02:00 655.44 0.00 80.8 68.0 --
07/28/2020 01:00 655.44 0.00 81.5 68.0 --
07/28/2020 00:00 655.43 0.00 74.9 94.0 --
07/27/2020 23:00 655.44 0.00 76.4 88.0 --
07/27/2020 22:00 655.43 0.00 77.4 86.0 --
07/27/2020 21:00 655.44 0.00 80.7 78.0 --
07/27/2020 20:00 655.44 0.00 88.3 57.0 --
07/27/2020 19:00 655.44 0.00 89.3 50.0 --
07/27/2020 18:00 655.45 0.00 89.8 47.0 --
07/27/2020 17:00 655.45 0.00 89.7 45.0 --
07/27/2020 16:00 655.44 0.00 89.3 49.0 --
07/27/2020 15:00 655.45 0.00 87.7 51.0 --
07/27/2020 14:00 655.44 0.00 86.6 56.0 --
07/27/2020 13:00 655.44 0.00 85.4 57.0 --
07/27/2020 12:00 655.45 0.00 83.2 61.0 --
07/27/2020 11:00 655.46 0.00 81.1 65.0 --
07/27/2020 10:00 655.46 0.00 75.8 83.0 --
07/27/2020 09:00 655.45 0.00 76.6 73.0 --
07/27/2020 08:00 655.45 0.00 75.5 76.0 --
07/27/2020 07:00 655.46 0.00 75.2 80.0 --
07/27/2020 06:00 655.46 0.00 74.5 79.0 --
07/27/2020 05:00 655.46 0.00 77.4 74.0 --
07/27/2020 04:00 655.46 0.00 77.7 71.0 --
07/27/2020 03:00 655.48 0.00 77.6 73.0 --
07/27/2020 02:00 655.46 0.00 77.8 69.0 --
07/27/2020 01:00 655.45 0.00 73.9 80.0 --
07/27/2020 00:00 655.46 0.00 76.4 72.0 --
07/26/2020 23:00 655.46 0.00 79.7 64.0 --
07/26/2020 22:00 655.46 0.00 80.9 63.0 --
07/26/2020 21:00 655.46 0.00 81.6 58.0 --
07/26/2020 20:00 655.46 0.00 81.7 60.0 --
07/26/2020 19:00 655.46 0.00 83.7 55.0 --
07/26/2020 18:00 655.46 0.00 83.8 55.0 --
07/26/2020 17:00 655.46 0.00 84.3 49.0 --
07/26/2020 16:00 655.47 0.00 85.6 44.0 --
07/26/2020 15:00 655.48 0.00 84.9 45.0 --
07/26/2020 14:00 655.46 0.00 83.6 46.0 --
07/26/2020 13:00 655.48 0.00 82.0 51.0 --
07/26/2020 12:00 655.48 0.00 80.6 50.0 --
07/26/2020 11:00 655.48 0.00 77.7 58.0 --
07/26/2020 10:00 655.48 0.00 74.5 65.0 --
07/26/2020 09:00 655.49 0.00 71.6 69.0 --
07/26/2020 08:00 655.48 0.00 65.3 100.0 --
07/26/2020 07:00 655.49 0.00 68.1 86.0 --
07/26/2020 06:00 655.49 0.00 61.3 100.0 --
07/26/2020 05:00 655.48 0.00 61.8 100.0 --
07/26/2020 04:00 655.48 0.00 63.3 100.0 --
07/26/2020 03:00 655.48 0.00 64.6 100.0 --
07/26/2020 02:00 655.48 0.00 65.9 100.0 --
07/26/2020 01:00 655.49 0.00 67.2 100.0 --
07/26/2020 00:00 655.48 0.00 68.1 100.0 --
07/25/2020 23:00 655.48 0.00 68.7 97.0 --
07/25/2020 22:00 655.48 0.00 70.6 100.0 --
07/25/2020 21:00 655.48 0.00 73.7 90.0 --
07/25/2020 20:00 655.49 0.00 77.0 79.0 --
07/25/2020 19:00 655.49 0.00 80.8 67.0 --
07/25/2020 18:00 655.49 0.00 84.1 53.0 --
07/25/2020 17:00 655.49 0.00 84.8 47.0 --
07/25/2020 16:00 655.50 0.00 83.3 41.0 --
07/25/2020 15:00 655.49 0.00 81.5 55.0 --
07/25/2020 14:00 655.49 0.00 81.7 58.0 --
07/25/2020 13:00 655.50 0.00 80.9 56.0 --
07/25/2020 12:00 655.50 0.00 78.8 65.0 --
07/25/2020 11:00 655.49 0.00 77.1 78.0 --
07/25/2020 10:00 655.49 0.00 70.5 100.0 --
07/25/2020 09:00 655.49 0.00 66.4 100.0 --
07/25/2020 08:00 655.50 0.00 64.6 100.0 --
07/25/2020 07:00 655.51 0.00 63.5 100.0 --
07/25/2020 06:00 655.50 0.00 64.0 100.0 --
07/25/2020 05:00 655.50 0.00 64.2 100.0 --
07/25/2020 04:00 655.51 0.00 65.0 100.0 --
07/25/2020 03:00 655.51 0.00 65.4 100.0 --
07/25/2020 02:00 655.50 0.00 65.8 100.0 --
07/25/2020 01:00 655.50 0.00 66.8 100.0 --
07/25/2020 00:00 655.51 0.00 67.7 100.0 --
07/24/2020 23:00 655.51 0.00 68.8 100.0 --
07/24/2020 22:00 655.50 0.00 68.4 100.0 --
07/24/2020 21:00 655.50 0.00 71.1 98.0 --
07/24/2020 20:00 655.50 0.00 74.9 84.0 --
07/24/2020 19:00 655.50 0.00 76.6 82.0 --
07/24/2020 18:00 655.51 0.00 78.8 69.0 --
07/24/2020 17:00 655.51 0.00 80.9 54.0 --
07/24/2020 16:00 655.51 0.00 78.8 55.0 --
07/24/2020 15:00 655.50 0.00 78.0 58.0 --
07/24/2020 14:00 655.50 0.00 77.9 66.0 --
07/24/2020 13:00 655.50 0.00 75.7 70.0 --
07/24/2020 12:00 655.50 0.00 74.1 76.0 --
07/24/2020 11:00 655.50 0.00 70.9 100.0 --
07/24/2020 10:00 655.50 0.00 69.7 100.0 --
07/24/2020 09:00 655.50 0.00 67.3 100.0 --
07/24/2020 08:00 655.50 0.00 65.7 100.0 --
07/24/2020 07:00 655.49 0.00 63.7 100.0 --
07/24/2020 06:00 655.50 0.00 65.7 100.0 --
07/24/2020 05:00 655.48 0.00 65.7 100.0 --
07/24/2020 04:00 655.48 0.00 66.5 100.0 --
07/24/2020 03:00 655.50 0.00 68.3 100.0 --
07/24/2020 02:00 655.50 0.00 68.6 100.0 --
07/24/2020 01:00 655.49 0.00 69.3 100.0 --
07/24/2020 00:00 655.50 0.00 68.8 100.0 --
07/23/2020 23:00 655.50 0.00 69.2 100.0 --
07/23/2020 22:00 655.50 0.00 70.0 100.0 --
07/23/2020 21:00 655.50 0.00 70.4 100.0 --
07/23/2020 20:00 655.50 0.00 70.2 100.0 --
07/23/2020 19:00 655.48 0.00 70.3 100.0 --
07/23/2020 18:00 655.48 0.00 80.5 82.0 --
07/23/2020 17:00 655.50 0.00 77.0 84.0 --
07/23/2020 16:00 655.48 0.00 74.8 90.0 --
07/23/2020 15:00 655.48 0.00 74.4 100.0 --
07/23/2020 14:00 655.49 0.00 79.3 81.0 --
07/23/2020 13:00 655.49 0.00 78.3 84.0 --
07/23/2020 12:00 655.48 0.00 76.0 100.0 --
07/23/2020 11:00 655.49 0.00 74.4 100.0 --
07/23/2020 10:00 655.48 0.00 69.6 100.0 --
07/23/2020 09:00 655.49 0.00 67.6 100.0 --
07/23/2020 08:00 655.49 0.00 65.7 100.0 --
07/23/2020 07:00 655.47 0.00 64.2 100.0 --
07/23/2020 06:00 655.48 0.00 63.9 100.0 --
07/23/2020 05:00 655.48 0.00 63.8 100.0 --
07/23/2020 04:00 655.48 0.00 63.9 100.0 --
07/23/2020 03:00 655.48 0.00 64.3 100.0 --
07/23/2020 02:00 655.47 0.00 64.2 100.0 --
07/23/2020 01:00 655.48 0.00 64.7 100.0 --
07/23/2020 00:00 655.47 0.00 64.4 100.0 --
07/22/2020 23:00 655.46 0.00 66.3 100.0 --
07/22/2020 22:00 655.44 0.00 67.4 100.0 --
07/22/2020 21:00 655.43 0.01 69.8 92.0 --
07/22/2020 20:00 655.43 0.00 71.7 89.0 --
07/22/2020 19:00 655.43 0.00 73.0 83.0 --
07/22/2020 18:00 655.44 0.00 76.4 74.0 --
07/22/2020 17:00 655.43 0.00 73.7 78.0 --
07/22/2020 16:00 655.44 0.00 71.9 82.0 --
07/22/2020 15:00 655.43 0.00 70.6 83.0 --
07/22/2020 14:00 655.44 0.00 67.4 89.0 --
07/22/2020 13:00 655.44 0.00 67.8 88.0 --
07/22/2020 12:00 655.44 0.00 68.5 89.0 --
07/22/2020 11:00 655.44 0.00 67.7 86.0 --
07/22/2020 10:00 655.43 0.00 66.9 94.0 --
07/22/2020 09:00 655.44 0.00 67.4 100.0 --
07/22/2020 08:00 655.44 0.00 67.1 100.0 --
07/22/2020 07:00 655.44 0.00 64.7 100.0 --
07/22/2020 06:00 655.44 0.00 64.5 100.0 --
07/22/2020 05:00 655.44 0.00 65.3 100.0 --
07/22/2020 04:00 655.44 0.00 65.4 100.0 --
07/22/2020 03:00 655.44 0.00 65.3 100.0 --
07/22/2020 02:00 655.44 0.00 66.7 100.0 --
07/22/2020 01:00 655.44 0.00 68.7 92.0 --
07/22/2020 00:00 655.43 0.00 70.4 85.0 --
07/21/2020 23:00 655.43 0.00 70.6 88.0 --
07/21/2020 22:00 655.43 0.00 72.7 84.0 --
07/21/2020 21:00 -- -- -- -- --
07/21/2020 20:00 -- -- -- -- --
07/21/2020 19:00 -- -- -- -- --
07/21/2020 18:00 -- -- -- -- --
07/21/2020 17:00 -- -- -- -- --
07/21/2020 16:00 -- -- -- -- --
07/21/2020 15:00 -- -- -- -- --
07/21/2020 14:00 -- -- -- -- --
07/21/2020 13:00 -- -- -- -- --
07/21/2020 12:00 -- -- -- -- --
07/21/2020 11:00 -- -- -- -- --
07/21/2020 10:00 -- -- -- -- --
07/21/2020 09:00 -- -- -- -- --
07/21/2020 08:00 -- -- -- -- --
07/21/2020 07:00 -- -- -- -- --
07/21/2020 06:00 -- -- -- -- --
07/21/2020 05:00 -- -- -- -- --